createdAt,value
2017-12-11T00:00:06.026Z,0.50
2017-12-11T00:02:35.046Z,0.40
2017-12-11T00:05:03.506Z,-0.20
2017-12-11T00:07:31.125Z,-0.30
2017-12-11T00:09:59.634Z,-0.10
2017-12-11T00:12:27.265Z,-0.20
2017-12-11T00:14:54.880Z,0.10
2017-12-11T00:17:22.852Z,0.10
2017-12-11T00:19:50.470Z,0.00
2017-12-11T00:22:18.086Z,0.40
2017-12-11T00:24:45.770Z,0.40
2017-12-11T00:27:14.319Z,0.10
2017-12-11T00:29:42.891Z,0.10
2017-12-11T00:32:11.583Z,-0.50
2017-12-11T00:34:39.211Z,-0.40
2017-12-11T00:37:06.841Z,1.50
2017-12-11T00:39:34.517Z,1.30
2017-12-11T00:44:29.752Z,0.80
2017-12-11T00:46:58.777Z,1.40
2017-12-11T00:49:26.398Z,0.60
2017-12-11T00:51:54.016Z,0.00
2017-12-11T00:54:22.574Z,0.30
2017-12-11T00:56:50.195Z,0.50
2017-12-11T00:59:23.688Z,-0.30
2017-12-11T01:01:46.599Z,-0.20
2017-12-11T01:04:14.224Z,-0.10
2017-12-11T01:06:41.857Z,-0.30
2017-12-11T01:09:09.599Z,-0.20
2017-12-11T01:11:37.226Z,-0.60
2017-12-11T01:14:04.850Z,-0.70
2017-12-11T01:16:32.543Z,-0.70
2017-12-11T01:19:00.167Z,-0.50
2017-12-11T01:24:09.962Z,-0.20
2017-12-11T01:26:37.653Z,-0.20
2017-12-11T01:29:06.311Z,-0.10
2017-12-11T01:31:33.987Z,-0.40
2017-12-11T01:34:01.612Z,0.10
2017-12-11T01:36:29.240Z,2.00
2017-12-11T01:38:57.040Z,0.50
2017-12-11T01:41:24.665Z,0.00
2017-12-11T01:43:52.614Z,-0.10
2017-12-11T01:46:20.298Z,-0.20
2017-12-11T01:48:47.920Z,-0.70
2017-12-11T01:51:16.351Z,-0.50
2017-12-11T01:53:44.345Z,0.20
2017-12-11T01:56:12.795Z,1.10
2017-12-11T01:58:41.259Z,0.50
2017-12-11T02:01:09.792Z,0.30
2017-12-11T02:06:17.591Z,0.10
2017-12-11T02:08:47.154Z,0.40
2017-12-11T02:13:42.470Z,-0.80
2017-12-11T02:16:10.096Z,-0.80
2017-12-11T02:18:37.725Z,-0.60
2017-12-11T02:21:05.502Z,-0.40
2017-12-11T02:23:33.123Z,-0.10
2017-12-11T02:28:28.421Z,0.00
2017-12-11T02:30:58.032Z,0.20
2017-12-11T02:33:23.654Z,-0.20
2017-12-11T02:35:52.613Z,-0.50
2017-12-11T02:38:20.240Z,-0.50
2017-12-11T02:40:47.869Z,-0.20
2017-12-11T02:43:15.549Z,0.10
2017-12-11T02:45:44.018Z,-0.40
2017-12-11T02:48:11.652Z,-0.50
2017-12-11T02:50:39.332Z,-0.70
2017-12-11T02:53:06.958Z,0.00
2017-12-11T02:55:34.573Z,1.30
2017-12-11T02:58:02.354Z,0.70
2017-12-11T03:00:30.703Z,0.60
2017-12-11T03:02:59.158Z,1.10
2017-12-11T03:05:26.945Z,0.40
2017-12-11T03:10:22.993Z,0.50
2017-12-11T03:12:50.691Z,1.10
2017-12-11T03:15:19.127Z,3.70
2017-12-11T03:17:47.631Z,2.20
2017-12-11T03:20:16.631Z,1.70
2017-12-11T03:22:45.064Z,2.20
2017-12-11T03:25:13.634Z,0.60
2017-12-11T03:27:41.318Z,0.90
2017-12-11T03:32:50.495Z,1.00
2017-12-11T03:35:18.114Z,1.30
2017-12-11T03:37:45.735Z,-0.50
2017-12-11T03:40:13.420Z,-0.20
2017-12-11T03:42:41.867Z,-0.50
2017-12-11T03:45:09.494Z,-0.60
2017-12-11T03:47:37.284Z,-0.30
2017-12-11T03:52:46.143Z,0.00
2017-12-11T03:55:15.265Z,0.00
2017-12-11T03:57:43.767Z,0.40
2017-12-11T04:00:11.556Z,0.50
2017-12-11T04:02:39.183Z,0.10
2017-12-11T04:05:06.803Z,0.10
2017-12-11T04:07:34.852Z,0.20
2017-12-11T04:10:02.473Z,0.00
2017-12-11T04:12:31.228Z,-0.20
2017-12-11T04:15:01.441Z,-0.40
2017-12-11T04:17:29.070Z,-0.30
2017-12-11T04:19:56.720Z,-0.40
2017-12-11T04:22:24.806Z,-0.10
2017-12-11T04:24:52.419Z,0.20
2017-12-11T04:27:20.859Z,-0.30
2017-12-11T04:29:48.532Z,0.10
2017-12-11T04:32:17.891Z,0.50
2017-12-11T04:34:45.502Z,0.20
2017-12-11T04:37:13.287Z,0.70
2017-12-11T04:39:41.727Z,1.10
2017-12-11T04:42:10.285Z,2.00
2017-12-11T04:44:38.891Z,0.60
2017-12-11T04:47:06.504Z,0.40
2017-12-11T04:49:34.125Z,0.40
2017-12-11T04:52:02.875Z,0.80
2017-12-11T04:54:30.493Z,1.50
2017-12-11T04:56:58.922Z,1.80
2017-12-11T04:59:26.631Z,2.10
2017-12-11T05:01:54.282Z,2.80
2017-12-11T05:04:22.799Z,1.60
2017-12-11T05:06:50.675Z,1.80
2017-12-11T05:09:18.297Z,3.30
2017-12-11T05:11:45.910Z,2.20
2017-12-11T05:16:54.207Z,0.70
2017-12-11T05:19:23.003Z,0.80
2017-12-11T05:21:50.620Z,0.70
2017-12-11T05:24:18.238Z,0.80
2017-12-11T05:26:46.301Z,0.60
2017-12-11T05:29:13.912Z,0.80
2017-12-11T05:31:41.523Z,0.60
2017-12-11T05:34:09.205Z,1.00
2017-12-11T05:36:36.819Z,1.60
2017-12-11T05:39:04.432Z,1.80
2017-12-11T05:41:32.201Z,1.70
2017-12-11T05:44:00.811Z,2.10
2017-12-11T05:46:28.431Z,3.90
2017-12-11T05:48:56.900Z,3.10
2017-12-11T05:54:07.651Z,5.20
2017-12-11T05:56:35.263Z,5.00
2017-12-11T05:59:03.836Z,3.70
2017-12-11T06:01:31.519Z,5.30
2017-12-11T06:06:26.751Z,6.40
2017-12-11T06:11:22.352Z,4.40
2017-12-11T06:13:49.997Z,4.10
2017-12-11T06:16:17.929Z,3.40
2017-12-11T06:21:31.505Z,3.40
2017-12-11T06:24:01.154Z,4.90
2017-12-11T06:26:25.376Z,5.70
2017-12-11T06:28:53.056Z,6.60
2017-12-11T06:31:21.415Z,7.10
2017-12-11T06:33:49.933Z,3.50
2017-12-11T06:36:17.472Z,3.80
2017-12-11T06:38:45.094Z,5.50
2017-12-11T06:41:12.967Z,3.90
2017-12-11T06:43:40.578Z,3.40
2017-12-11T06:46:08.192Z,2.20
2017-12-11T06:48:35.870Z,2.00
2017-12-11T06:51:04.304Z,2.40
2017-12-11T06:53:31.926Z,2.80
2017-12-11T06:56:00.450Z,2.20
2017-12-11T06:58:28.055Z,2.60
2017-12-11T07:00:56.804Z,3.10
2017-12-11T07:03:24.354Z,2.90
2017-12-11T07:05:51.980Z,4.10
2017-12-11T07:08:19.591Z,7.20
2017-12-11T07:10:48.590Z,8.00
2017-12-11T07:13:16.211Z,7.70
2017-12-11T07:15:43.826Z,7.90
2017-12-11T07:20:51.395Z,8.30
2017-12-11T07:23:19.064Z,8.80
2017-12-11T07:25:46.686Z,8.70
2017-12-11T07:28:14.299Z,9.00
2017-12-11T07:30:42.080Z,8.80
2017-12-11T07:33:09.696Z,8.70
2017-12-11T07:35:38.162Z,9.00
2017-12-11T07:38:06.651Z,9.20
2017-12-11T07:40:34.275Z,9.10
2017-12-11T07:43:02.700Z,9.40
2017-12-11T07:45:31.442Z,9.40
2017-12-11T07:47:59.052Z,9.40
2017-12-11T07:50:27.614Z,9.40
2017-12-11T07:52:55.283Z,9.40
2017-12-11T07:55:22.904Z,9.60
2017-12-11T07:57:50.519Z,9.40
2017-12-11T08:00:19.510Z,9.60
2017-12-11T08:02:47.125Z,9.70
2017-12-11T08:05:15.571Z,9.80
2017-12-11T08:07:44.190Z,9.80
2017-12-11T08:10:12.628Z,8.70
2017-12-11T08:12:40.261Z,8.20
2017-12-11T08:15:07.942Z,9.10
2017-12-11T08:17:35.559Z,9.30
2017-12-11T08:20:04.032Z,9.20
2017-12-11T08:24:59.336Z,10.20
2017-12-11T08:27:26.956Z,10.20
2017-12-11T08:29:54.820Z,10.20
2017-12-11T08:32:22.434Z,10.30
2017-12-11T08:34:50.063Z,10.30
2017-12-11T08:37:17.738Z,10.40
2017-12-11T08:39:49.695Z,10.20
2017-12-11T08:42:17.483Z,10.00
2017-12-11T08:47:24.249Z,10.10
2017-12-11T08:49:51.864Z,10.00
2017-12-11T08:52:19.488Z,10.00
2017-12-11T08:54:47.501Z,10.00
2017-12-11T08:57:15.124Z,10.00
2017-12-11T08:59:43.713Z,10.00
2017-12-11T09:02:11.390Z,9.90
2017-12-11T09:04:39.000Z,9.90
2017-12-11T09:07:06.625Z,9.70
2017-12-11T09:09:35.234Z,9.80
2017-12-11T09:12:03.803Z,10.00
2017-12-11T09:14:31.592Z,10.10
2017-12-11T09:16:59.278Z,10.10
2017-12-11T09:19:26.924Z,10.10
2017-12-11T09:21:54.570Z,10.30
2017-12-11T09:24:22.495Z,10.80
2017-12-11T09:26:50.125Z,10.60
2017-12-11T09:29:17.755Z,10.50
2017-12-11T09:31:46.143Z,10.50
2017-12-11T09:34:13.766Z,10.50
2017-12-11T09:36:41.388Z,10.60
2017-12-11T09:39:09.176Z,10.50
2017-12-11T09:41:36.793Z,10.60
2017-12-11T09:46:32.088Z,10.70
2017-12-11T09:48:59.712Z,10.50
2017-12-11T09:51:27.337Z,10.50
2017-12-11T09:53:55.009Z,10.50
2017-12-11T09:56:22.634Z,10.40
2017-12-11T09:58:50.255Z,10.40
2017-12-11T10:01:17.930Z,10.40
2017-12-11T10:03:45.551Z,10.50
2017-12-11T10:08:52.326Z,10.40
2017-12-11T10:13:47.562Z,10.60
2017-12-11T10:16:16.267Z,10.50
2017-12-11T10:18:43.888Z,10.50
2017-12-11T10:21:12.452Z,10.50
2017-12-11T10:23:41.096Z,10.50
2017-12-11T10:26:09.556Z,10.50
2017-12-11T10:28:37.177Z,10.50
2017-12-11T10:31:04.864Z,10.60
2017-12-11T10:33:33.313Z,10.60
2017-12-11T10:36:00.947Z,10.60
2017-12-11T10:38:28.610Z,10.70
2017-12-11T10:40:56.226Z,10.90
2017-12-11T10:43:24.791Z,11.10
2017-12-11T10:45:52.471Z,11.10
2017-12-11T10:48:21.051Z,11.20
2017-12-11T10:50:49.516Z,11.30
2017-12-11T10:55:45.723Z,11.20
2017-12-11T10:58:13.370Z,11.50
2017-12-11T11:00:42.665Z,11.40
2017-12-11T11:05:49.341Z,11.40
2017-12-11T11:08:16.967Z,11.40
2017-12-11T11:10:44.588Z,11.40
2017-12-11T11:13:12.262Z,11.30
2017-12-11T11:15:39.883Z,11.30
2017-12-11T11:18:08.340Z,11.20
2017-12-11T11:20:36.033Z,11.30
2017-12-11T11:23:04.544Z,11.30
2017-12-11T11:25:33.119Z,11.30
2017-12-11T11:28:00.804Z,11.20
2017-12-11T11:30:28.833Z,11.40
2017-12-11T11:32:56.829Z,11.40
2017-12-11T11:35:24.842Z,11.40
2017-12-11T11:37:52.411Z,11.40
2017-12-11T11:40:20.034Z,11.40
2017-12-11T11:42:48.130Z,11.40
2017-12-11T11:45:15.966Z,11.60
2017-12-11T11:47:43.825Z,11.60
2017-12-11T11:50:11.694Z,11.70
2017-12-11T11:52:39.546Z,11.70
2017-12-11T11:55:07.229Z,11.70
2017-12-11T12:00:20.720Z,11.80
2017-12-11T12:02:48.569Z,11.80
2017-12-11T12:05:16.152Z,11.90
2017-12-11T12:07:43.832Z,12.10
2017-12-11T12:10:11.764Z,12.10
2017-12-11T12:12:39.665Z,12.20
2017-12-11T12:15:07.311Z,12.20
2017-12-11T12:17:35.044Z,12.30
2017-12-11T12:20:02.772Z,12.30
2017-12-11T12:24:58.362Z,12.20
2017-12-11T12:27:25.955Z,12.30
2017-12-11T12:29:56.283Z,12.30
2017-12-11T12:34:51.776Z,12.30
2017-12-11T12:37:19.411Z,12.30
2017-12-11T12:39:47.255Z,12.40
2017-12-11T12:42:15.934Z,12.30
2017-12-11T12:44:43.540Z,12.50
2017-12-11T12:47:11.231Z,12.40
2017-12-11T12:52:07.420Z,12.40
2017-12-11T12:54:36.064Z,12.30
2017-12-11T12:59:32.302Z,12.40
2017-12-11T13:01:59.994Z,12.40
2017-12-11T13:04:27.622Z,12.40
2017-12-11T13:06:55.245Z,12.30
2017-12-11T13:09:23.040Z,12.30
2017-12-11T13:11:51.612Z,12.30
2017-12-11T13:14:20.165Z,12.20
2017-12-11T13:19:26.946Z,12.10
2017-12-11T13:21:54.742Z,12.20
2017-12-11T13:24:22.378Z,12.20
2017-12-11T13:26:50.635Z,12.20
2017-12-11T13:29:18.209Z,12.10
2017-12-11T13:31:45.856Z,12.10
2017-12-11T13:34:13.483Z,12.10
2017-12-11T13:39:10.746Z,12.20
2017-12-11T13:41:38.369Z,12.20
2017-12-11T13:44:06.067Z,12.10
2017-12-11T13:49:01.308Z,12.30
2017-12-11T13:51:29.089Z,12.20
2017-12-11T13:53:57.119Z,12.10
2017-12-11T13:56:25.701Z,12.10
2017-12-11T13:58:53.381Z,12.10
2017-12-11T14:01:20.997Z,12.20
2017-12-11T14:03:48.616Z,12.00
2017-12-11T14:06:16.583Z,11.90
2017-12-11T14:08:44.208Z,11.80
2017-12-11T14:11:12.774Z,11.90
2017-12-11T14:13:41.496Z,11.80
2017-12-11T14:16:09.111Z,11.80
2017-12-11T14:18:37.672Z,11.90
2017-12-11T14:21:05.347Z,11.90
2017-12-11T14:23:33.935Z,11.90
2017-12-11T14:26:01.555Z,11.90
2017-12-11T14:28:29.389Z,12.00
2017-12-11T14:30:57.012Z,12.00
2017-12-11T14:33:24.636Z,12.00
2017-12-11T14:35:53.270Z,12.10
2017-12-11T14:38:20.883Z,12.10
2017-12-11T14:40:49.451Z,12.10
2017-12-11T14:45:56.431Z,12.30
2017-12-11T14:48:24.966Z,12.30
2017-12-11T14:50:52.594Z,12.30
2017-12-11T14:53:20.218Z,12.30
2017-12-11T14:55:48.117Z,12.30
2017-12-11T14:58:16.559Z,12.30
2017-12-11T15:00:44.196Z,12.00
2017-12-11T15:03:12.023Z,11.90
2017-12-11T15:05:39.647Z,12.00
2017-12-11T15:08:07.275Z,11.80
2017-12-11T15:10:38.105Z,11.90
2017-12-11T15:13:05.721Z,11.90
2017-12-11T15:15:33.350Z,11.80
2017-12-11T15:18:01.024Z,11.80
2017-12-11T15:23:07.426Z,12.10
2017-12-11T15:25:35.051Z,12.20
2017-12-11T15:30:30.624Z,11.90
2017-12-11T15:32:58.264Z,12.00
2017-12-11T15:35:25.893Z,12.10
2017-12-11T15:37:53.704Z,12.00
2017-12-11T15:40:21.295Z,12.00
2017-12-11T15:42:48.917Z,12.10
2017-12-11T15:45:16.645Z,12.10
2017-12-11T15:47:44.279Z,12.00
2017-12-11T15:50:11.900Z,12.00
2017-12-11T15:52:39.599Z,12.20
2017-12-11T15:55:07.196Z,12.30
2017-12-11T15:57:34.829Z,12.30
2017-12-11T16:00:03.756Z,12.30
2017-12-11T16:02:31.408Z,12.30
2017-12-11T16:04:59.476Z,12.20
2017-12-11T16:07:27.178Z,12.20
2017-12-11T16:09:54.807Z,12.20
2017-12-11T16:12:22.429Z,12.20
2017-12-11T16:14:50.108Z,12.10
2017-12-11T16:17:17.732Z,12.10
2017-12-11T16:19:45.351Z,12.10
2017-12-11T16:22:13.032Z,12.20
2017-12-11T16:24:40.653Z,12.20
2017-12-11T16:27:08.279Z,12.40
2017-12-11T16:29:36.075Z,12.20
2017-12-11T16:32:03.745Z,12.40
2017-12-11T16:34:31.366Z,12.30
2017-12-11T16:36:59.080Z,12.40
2017-12-11T16:39:26.689Z,12.40
2017-12-11T16:41:54.309Z,12.50
2017-12-11T16:44:22.275Z,12.40
2017-12-11T16:46:51.877Z,12.60
2017-12-11T16:52:01.100Z,12.30
2017-12-11T16:54:28.935Z,12.30
2017-12-11T16:56:56.391Z,12.20
2017-12-11T16:59:24.207Z,12.20
2017-12-11T17:01:51.834Z,12.20
2017-12-11T17:04:19.462Z,12.20
2017-12-11T17:06:47.403Z,12.30
2017-12-11T17:09:15.024Z,12.20
2017-12-11T17:16:49.878Z,12.20
2017-12-11T17:21:45.285Z,12.00
2017-12-11T17:24:12.912Z,12.10
2017-12-11T17:26:40.538Z,12.10
2017-12-11T17:29:08.501Z,12.00
2017-12-11T17:31:36.134Z,11.90
2017-12-11T17:34:03.758Z,12.30
2017-12-11T17:36:31.460Z,12.20
2017-12-11T17:38:59.079Z,12.10
2017-12-11T17:41:26.708Z,12.10
2017-12-11T17:43:54.501Z,12.30
2017-12-11T17:46:22.284Z,12.30
2017-12-11T17:48:49.891Z,12.40
2017-12-11T17:51:17.691Z,12.50
2017-12-11T17:53:46.071Z,12.40
2017-12-11T17:58:54.851Z,12.20
2017-12-11T18:01:21.826Z,12.20
2017-12-11T18:03:49.506Z,12.10
2017-12-11T18:09:05.185Z,12.30
2017-12-11T18:11:32.969Z,12.30
2017-12-11T18:14:00.599Z,12.30
2017-12-11T18:16:28.227Z,12.00
2017-12-11T18:18:55.927Z,12.10
2017-12-11T18:21:23.553Z,12.10
2017-12-11T18:23:51.190Z,12.10
2017-12-11T18:26:19.844Z,12.10
2017-12-11T18:28:48.455Z,12.10
2017-12-11T18:31:16.083Z,12.30
2017-12-11T18:33:43.808Z,12.40
2017-12-11T18:36:12.155Z,12.40
2017-12-11T18:38:39.788Z,12.30
2017-12-11T18:41:08.486Z,12.20
2017-12-11T18:43:36.127Z,12.00
2017-12-11T18:46:03.777Z,11.90
2017-12-11T18:48:31.585Z,11.90
2017-12-11T18:50:59.219Z,11.90
2017-12-11T18:53:27.801Z,11.90
2017-12-11T18:55:55.599Z,12.00
2017-12-11T18:58:24.182Z,11.80
2017-12-11T19:00:51.848Z,11.80
2017-12-11T19:03:19.674Z,11.70
2017-12-11T19:05:47.488Z,11.70
2017-12-11T19:08:15.087Z,11.80
2017-12-11T19:10:42.790Z,12.00
2017-12-11T19:13:10.412Z,12.00
2017-12-11T19:15:38.905Z,11.90
2017-12-11T19:18:06.834Z,11.90
2017-12-11T19:20:34.490Z,11.80
2017-12-11T19:23:02.167Z,11.70
2017-12-11T19:25:30.278Z,11.70
2017-12-11T19:27:57.904Z,11.90
2017-12-11T19:30:25.652Z,11.80
2017-12-11T19:35:32.631Z,11.90
2017-12-11T19:38:00.400Z,11.90
2017-12-11T19:40:28.203Z,11.90
2017-12-11T19:42:55.912Z,12.00
2017-12-11T19:45:24.200Z,12.00
2017-12-11T19:47:51.784Z,11.90
2017-12-11T19:50:20.042Z,11.80
2017-12-11T19:52:47.697Z,11.60
2017-12-11T19:55:15.426Z,11.60
2017-12-11T19:57:45.045Z,11.50
2017-12-11T20:02:53.467Z,11.50
2017-12-11T20:05:21.488Z,11.60
2017-12-11T20:07:49.262Z,11.30
2017-12-11T20:10:17.084Z,11.20
2017-12-11T20:12:45.230Z,11.30
2017-12-11T20:15:12.751Z,11.10
2017-12-11T20:17:40.423Z,11.30
2017-12-11T20:20:08.089Z,11.20
2017-12-11T20:22:35.717Z,11.20
2017-12-11T20:25:03.478Z,11.20
2017-12-11T20:27:31.407Z,11.00
2017-12-11T20:29:59.130Z,10.70
2017-12-11T20:32:26.998Z,10.60
2017-12-11T20:34:54.925Z,10.80
2017-12-11T20:37:23.206Z,11.10
2017-12-11T20:39:51.239Z,11.10
2017-12-11T20:42:18.892Z,10.90
2017-12-11T20:44:47.067Z,11.20
2017-12-11T20:47:15.361Z,11.20
2017-12-11T20:49:44.096Z,11.00
2017-12-11T20:52:11.759Z,10.70
2017-12-11T20:54:39.433Z,10.70
2017-12-11T20:57:07.212Z,10.90
2017-12-11T20:59:34.877Z,10.80
2017-12-11T21:02:02.601Z,10.90
2017-12-11T21:04:30.464Z,10.90
2017-12-11T21:09:37.663Z,10.90
2017-12-11T21:12:05.279Z,11.00
2017-12-11T21:14:32.906Z,10.90
2017-12-11T21:17:00.944Z,10.70
2017-12-11T21:19:28.775Z,10.70
2017-12-11T21:21:57.010Z,10.60
2017-12-11T21:24:24.500Z,10.60
2017-12-11T21:29:20.220Z,10.70
2017-12-11T21:31:48.136Z,10.70
2017-12-11T21:34:15.772Z,10.70
2017-12-11T21:36:43.566Z,10.70
2017-12-11T21:44:18.154Z,10.70
2017-12-11T21:46:45.775Z,10.70
2017-12-11T21:49:13.533Z,10.60
2017-12-11T21:51:41.304Z,10.70
2017-12-11T21:54:09.045Z,10.80
2017-12-11T21:59:04.424Z,10.50
2017-12-11T22:01:33.004Z,10.10
2017-12-11T22:04:00.077Z,10.00
2017-12-11T22:08:55.550Z,10.50
2017-12-11T22:11:23.175Z,10.50
2017-12-11T22:13:50.791Z,10.50
2017-12-11T22:16:18.408Z,10.60
2017-12-11T22:18:46.192Z,10.50
2017-12-11T22:21:13.851Z,10.70
2017-12-11T22:23:41.432Z,10.60
2017-12-11T22:26:09.114Z,10.50
2017-12-11T22:28:36.740Z,10.10
2017-12-11T22:31:04.356Z,10.10
2017-12-11T22:33:32.142Z,10.10
2017-12-11T22:35:59.840Z,10.20
2017-12-11T22:40:55.053Z,10.10
2017-12-11T22:43:22.687Z,10.20
2017-12-11T22:45:50.296Z,10.10
2017-12-11T22:48:18.299Z,9.90
2017-12-11T22:50:45.919Z,9.80
2017-12-11T22:53:13.656Z,10.20
2017-12-11T22:55:41.266Z,10.10
2017-12-11T22:58:08.896Z,10.00
2017-12-11T23:00:37.935Z,9.70
2017-12-11T23:05:44.902Z,9.60
2017-12-11T23:08:13.010Z,9.60
2017-12-11T23:10:40.631Z,9.70
2017-12-11T23:13:08.253Z,9.80
2017-12-11T23:15:36.085Z,9.80
2017-12-11T23:18:03.719Z,10.00
2017-12-11T23:20:31.370Z,9.60
2017-12-11T23:22:59.053Z,9.70
2017-12-11T23:25:26.670Z,9.70
2017-12-11T23:27:54.281Z,9.70
2017-12-11T23:30:22.203Z,9.70
2017-12-11T23:32:49.825Z,9.70
2017-12-11T23:35:18.273Z,9.80
2017-12-11T23:37:46.366Z,9.80
2017-12-11T23:40:13.982Z,9.80
2017-12-11T23:42:41.598Z,9.10
2017-12-11T23:45:09.290Z,9.00
2017-12-11T23:47:36.900Z,9.10
2017-12-11T23:50:04.513Z,9.10
2017-12-11T23:55:00.553Z,8.70
2017-12-11T23:57:28.170Z,8.90
2017-12-11T23:59:55.853Z,8.80
